createdAt,value
2022-09-26T00:01:43.199Z,100.00
2022-09-26T00:04:15.803Z,100.00
2022-09-26T00:06:47.689Z,100.00
2022-09-26T00:09:19.239Z,100.00
2022-09-26T00:11:51.027Z,100.00
2022-09-26T00:14:22.533Z,100.00
2022-09-26T00:16:54.085Z,100.00
2022-09-26T00:19:25.666Z,100.00
2022-09-26T00:21:57.502Z,100.00
2022-09-26T00:24:29.677Z,100.00
2022-09-26T00:27:01.624Z,100.00
2022-09-26T00:29:33.117Z,100.00
2022-09-26T00:32:04.964Z,100.00
2022-09-26T00:34:36.441Z,100.00
2022-09-26T00:37:08.309Z,100.00
2022-09-26T00:39:39.794Z,100.00
2022-09-26T00:42:11.763Z,100.00
2022-09-26T00:44:43.335Z,100.00
2022-09-26T00:47:15.299Z,100.00
2022-09-26T00:49:46.789Z,100.00
2022-09-26T00:52:18.617Z,100.00
2022-09-26T00:54:50.144Z,100.00
2022-09-26T00:57:21.641Z,100.00
2022-09-26T00:59:54.432Z,100.00
2022-09-26T01:02:26.546Z,100.00
2022-09-26T01:04:58.458Z,100.00
2022-09-26T01:07:30.273Z,100.00
2022-09-26T01:10:01.768Z,100.00
2022-09-26T01:12:33.627Z,100.00
2022-09-26T01:15:06.185Z,100.00
2022-09-26T01:17:38.216Z,100.00
2022-09-26T01:20:09.761Z,100.00
2022-09-26T01:22:41.746Z,100.00
2022-09-26T01:25:13.250Z,100.00
2022-09-26T01:27:45.276Z,100.00
2022-09-26T01:30:16.774Z,100.00
2022-09-26T01:32:51.894Z,100.00
2022-09-26T01:35:23.383Z,100.00
2022-09-26T01:37:55.185Z,100.00
2022-09-26T01:40:26.751Z,100.00
2022-09-26T01:43:00.499Z,100.00
2022-09-26T01:45:32.110Z,100.00
2022-09-26T01:48:04.010Z,100.00
2022-09-26T01:50:35.529Z,100.00
2022-09-26T01:53:07.341Z,100.00
2022-09-26T01:55:38.875Z,100.00
2022-09-26T01:58:10.772Z,100.00
2022-09-26T02:00:42.369Z,100.00
2022-09-26T02:03:14.250Z,100.00
2022-09-26T02:05:47.035Z,100.00
2022-09-26T02:08:18.891Z,100.00
2022-09-26T02:10:50.836Z,100.00
2022-09-26T02:13:22.365Z,100.00
2022-09-26T02:15:54.201Z,100.00
2022-09-26T02:18:25.730Z,100.00
2022-09-26T02:20:58.292Z,100.00
2022-09-26T02:23:29.806Z,100.00
2022-09-26T02:26:01.740Z,100.00
2022-09-26T02:28:33.213Z,100.00
2022-09-26T02:31:05.020Z,100.00
2022-09-26T02:33:36.570Z,100.00
2022-09-26T02:36:08.668Z,100.00
2022-09-26T02:38:40.153Z,100.00
2022-09-26T02:41:12.515Z,100.00
2022-09-26T02:43:44.552Z,100.00
2022-09-26T02:46:16.491Z,100.00
2022-09-26T02:48:48.040Z,100.00
2022-09-26T02:51:21.486Z,100.00
2022-09-26T02:53:52.993Z,100.00
2022-09-26T02:56:24.543Z,100.00
2022-09-26T02:58:59.617Z,100.00
2022-09-26T03:01:31.935Z,100.00
2022-09-26T03:04:03.485Z,100.00
2022-09-26T03:06:35.368Z,100.00
2022-09-26T03:09:11.414Z,100.00
2022-09-26T03:11:42.998Z,100.00
2022-09-26T03:14:14.823Z,100.00
2022-09-26T03:16:46.737Z,100.00
2022-09-26T03:19:19.269Z,100.00
2022-09-26T03:21:51.165Z,100.00
2022-09-26T03:24:22.737Z,100.00
2022-09-26T03:26:54.851Z,100.00
2022-09-26T03:29:26.451Z,100.00
2022-09-26T03:31:58.083Z,100.00
2022-09-26T03:34:29.651Z,100.00
2022-09-26T03:37:01.630Z,100.00
2022-09-26T03:39:33.127Z,100.00
2022-09-26T03:42:05.656Z,100.00
2022-09-26T03:44:37.137Z,100.00
2022-09-26T03:47:09.192Z,100.00
2022-09-26T03:49:40.699Z,100.00
2022-09-26T03:52:12.549Z,100.00
2022-09-26T03:54:44.812Z,100.00
2022-09-26T03:57:16.680Z,100.00
2022-09-26T03:59:48.222Z,100.00
2022-09-26T04:02:21.174Z,100.00
2022-09-26T04:04:52.704Z,100.00
2022-09-26T04:07:24.534Z,100.00
2022-09-26T04:09:56.066Z,100.00
2022-09-26T04:12:28.158Z,100.00
2022-09-26T04:14:59.676Z,100.00
2022-09-26T04:17:31.500Z,100.00
2022-09-26T04:20:03.014Z,100.00
2022-09-26T04:22:34.974Z,100.00
2022-09-26T04:25:06.512Z,100.00
2022-09-26T04:27:38.375Z,100.00
2022-09-26T04:30:11.769Z,100.00
2022-09-26T04:32:43.761Z,100.00
2022-09-26T04:35:15.258Z,100.00
2022-09-26T04:37:47.682Z,100.00
2022-09-26T04:40:19.317Z,100.00
2022-09-26T04:42:51.465Z,100.00
2022-09-26T04:45:23.039Z,100.00
2022-09-26T04:47:55.158Z,100.00
2022-09-26T04:50:26.713Z,100.00
2022-09-26T04:52:58.543Z,100.00
2022-09-26T04:55:30.056Z,100.00
2022-09-26T04:58:02.473Z,100.00
2022-09-26T05:00:34.024Z,100.00
2022-09-26T05:03:05.682Z,100.00
2022-09-26T05:05:37.209Z,100.00
2022-09-26T05:08:09.943Z,100.00
2022-09-26T05:10:41.486Z,100.00
2022-09-26T05:13:13.009Z,100.00
2022-09-26T05:15:44.489Z,100.00
2022-09-26T05:18:16.250Z,100.00
2022-09-26T05:20:48.449Z,100.00
2022-09-26T05:23:44.364Z,100.00
2022-09-26T05:26:22.797Z,100.00
2022-09-26T05:28:54.356Z,100.00
2022-09-26T05:31:28.967Z,100.00
2022-09-26T05:34:00.621Z,100.00
2022-09-26T05:36:32.136Z,100.00
2022-09-26T05:39:03.632Z,100.00
2022-09-26T05:41:35.464Z,100.00
2022-09-26T05:44:06.954Z,100.00
2022-09-26T05:46:39.253Z,100.00
2022-09-26T05:49:11.771Z,100.00
2022-09-26T05:51:43.671Z,100.00
2022-09-26T05:54:15.171Z,100.00
2022-09-26T05:56:46.986Z,100.00
2022-09-26T05:59:19.050Z,100.00
2022-09-26T06:01:51.051Z,100.00
2022-09-26T06:04:22.612Z,100.00
2022-09-26T06:06:54.136Z,100.00
2022-09-26T06:09:26.128Z,100.00
2022-09-26T06:11:57.662Z,100.00
2022-09-26T06:14:29.600Z,100.00
2022-09-26T06:17:01.197Z,100.00
2022-09-26T06:19:32.708Z,100.00
2022-09-26T06:22:04.262Z,100.00
2022-09-26T06:24:35.765Z,100.00
2022-09-26T06:27:07.659Z,100.00
2022-09-26T06:29:39.238Z,100.00
2022-09-26T06:32:11.145Z,100.00
2022-09-26T06:34:42.682Z,100.00
2022-09-26T06:37:14.921Z,100.00
2022-09-26T06:39:46.404Z,100.00
2022-09-26T06:42:18.204Z,100.00
2022-09-26T06:44:49.717Z,100.00
2022-09-26T06:47:21.530Z,100.00
2022-09-26T06:49:53.070Z,100.00
2022-09-26T06:52:24.612Z,100.00
2022-09-26T06:54:56.089Z,100.00
2022-09-26T06:57:27.646Z,100.00
2022-09-26T06:59:59.171Z,100.00
2022-09-26T07:02:30.757Z,98.80
2022-09-26T07:05:02.681Z,100.00
2022-09-26T07:07:34.194Z,98.84
2022-09-26T07:10:05.730Z,98.77
2022-09-26T07:12:44.317Z,99.97
2022-09-26T07:15:15.819Z,98.05
2022-09-26T07:17:48.176Z,98.35
2022-09-26T07:20:19.745Z,98.21
2022-09-26T07:22:51.245Z,98.35
2022-09-26T07:25:22.796Z,95.87
2022-09-26T07:27:54.279Z,95.93
2022-09-26T07:30:25.787Z,94.73
2022-09-26T07:32:57.290Z,93.85
2022-09-26T07:35:28.802Z,90.14
2022-09-26T07:38:00.299Z,91.33
2022-09-26T07:40:31.967Z,90.71
2022-09-26T07:43:19.032Z,89.71
2022-09-26T07:46:10.452Z,88.27
2022-09-26T07:49:00.874Z,86.84
2022-09-26T07:51:32.536Z,85.65
2022-09-26T07:54:04.016Z,84.82
2022-09-26T07:56:36.026Z,82.31
2022-09-26T07:59:07.519Z,81.98
2022-09-26T08:01:39.403Z,77.72
2022-09-26T08:04:11.230Z,77.03
2022-09-26T08:06:43.166Z,76.06
2022-09-26T08:09:14.928Z,76.03
2022-09-26T08:11:47.114Z,77.14
2022-09-26T08:14:18.632Z,76.19
2022-09-26T08:16:50.652Z,79.29
2022-09-26T08:19:23.027Z,80.46
2022-09-26T08:21:54.534Z,77.81
2022-09-26T08:24:26.088Z,76.86
2022-09-26T08:26:57.664Z,76.27
2022-09-26T08:29:30.943Z,75.14
2022-09-26T08:32:03.342Z,73.13
2022-09-26T08:34:35.077Z,72.17
2022-09-26T08:37:06.618Z,68.27
2022-09-26T08:39:38.313Z,67.36
2022-09-26T08:42:10.437Z,69.46
2022-09-26T08:44:42.133Z,67.28
2022-09-26T08:47:17.390Z,68.38
2022-09-26T08:49:50.305Z,66.06
2022-09-26T08:52:22.361Z,61.38
2022-09-26T08:54:53.862Z,61.91
2022-09-26T08:57:25.355Z,62.19
2022-09-26T08:59:57.368Z,64.42
2022-09-26T09:02:30.209Z,65.95
2022-09-26T09:05:01.872Z,66.54
2022-09-26T09:07:33.421Z,63.43
2022-09-26T09:10:05.285Z,62.52
2022-09-26T09:12:36.821Z,60.23
2022-09-26T09:15:26.648Z,58.65
2022-09-26T09:17:58.306Z,54.89
2022-09-26T09:20:30.258Z,55.91
2022-09-26T09:23:01.789Z,54.36
2022-09-26T09:25:33.319Z,54.24
2022-09-26T09:28:08.368Z,54.09
2022-09-26T09:30:40.290Z,54.77
2022-09-26T09:33:11.821Z,52.49
2022-09-26T09:35:43.331Z,52.55
2022-09-26T09:38:14.822Z,53.59
2022-09-26T09:40:46.396Z,52.47
2022-09-26T09:43:17.957Z,53.91
2022-09-26T09:45:49.515Z,52.48
2022-09-26T09:48:21.023Z,51.46
2022-09-26T09:50:52.568Z,49.71
2022-09-26T09:53:24.056Z,50.24
2022-09-26T09:55:55.579Z,49.07
2022-09-26T09:58:27.088Z,49.79
2022-09-26T10:00:59.392Z,48.55
2022-09-26T10:03:31.805Z,48.36
2022-09-26T10:06:03.323Z,48.56
2022-09-26T10:08:35.143Z,45.67
2022-09-26T10:11:08.602Z,46.17
2022-09-26T10:13:42.207Z,45.99
2022-09-26T10:16:15.244Z,46.57
2022-09-26T10:18:47.192Z,45.40
2022-09-26T10:21:19.598Z,45.21
2022-09-26T10:23:51.497Z,47.27
2022-09-26T10:26:25.511Z,45.58
2022-09-26T10:29:00.578Z,46.42
2022-09-26T10:31:32.142Z,47.57
2022-09-26T10:34:03.669Z,48.77
2022-09-26T10:36:35.219Z,50.16
2022-09-26T10:39:25.386Z,47.50
2022-09-26T10:41:57.742Z,46.57
2022-09-26T10:44:29.621Z,46.02
2022-09-26T10:47:05.251Z,45.46
2022-09-26T10:49:37.356Z,45.87
2022-09-26T10:52:09.206Z,48.06
2022-09-26T10:54:41.799Z,48.29
2022-09-26T10:57:14.082Z,48.37
2022-09-26T10:59:47.119Z,47.18
2022-09-26T11:02:19.861Z,47.37
2022-09-26T11:05:10.010Z,49.09
2022-09-26T11:07:42.717Z,50.24
2022-09-26T11:10:14.250Z,49.49
2022-09-26T11:12:45.790Z,49.40
2022-09-26T11:15:17.302Z,51.51
2022-09-26T11:17:48.975Z,51.05
2022-09-26T11:20:20.660Z,51.25
2022-09-26T11:22:53.237Z,53.38
2022-09-26T11:25:25.304Z,51.92
2022-09-26T11:27:56.857Z,52.33
2022-09-26T11:30:28.341Z,51.90
2022-09-26T11:33:00.382Z,50.90
2022-09-26T11:35:33.182Z,50.87
2022-09-26T11:38:05.753Z,50.99
2022-09-26T11:40:37.411Z,50.18
2022-09-26T11:43:09.078Z,49.88
2022-09-26T11:45:45.205Z,49.75
2022-09-26T11:48:19.087Z,50.64
2022-09-26T11:50:50.601Z,52.05
2022-09-26T11:53:22.119Z,52.20
2022-09-26T11:55:55.150Z,53.18
2022-09-26T11:58:26.660Z,53.19
2022-09-26T12:00:58.351Z,53.90
2022-09-26T12:03:33.293Z,54.69
2022-09-26T12:06:04.954Z,54.25
2022-09-26T12:08:37.039Z,53.06
2022-09-26T12:11:09.866Z,52.30
2022-09-26T12:13:41.487Z,51.63
2022-09-26T12:16:14.558Z,50.81
2022-09-26T12:18:46.775Z,49.72
2022-09-26T12:21:18.268Z,51.39
2022-09-26T12:23:50.496Z,51.25
2022-09-26T12:26:21.971Z,52.84
2022-09-26T12:28:53.750Z,52.74
2022-09-26T12:31:25.360Z,50.87
2022-09-26T12:33:56.924Z,50.40
2022-09-26T12:36:28.411Z,49.81
2022-09-26T12:39:00.221Z,50.20
2022-09-26T12:41:31.687Z,49.10
2022-09-26T12:44:03.492Z,48.26
2022-09-26T12:46:35.049Z,48.97
2022-09-26T12:49:07.859Z,49.55
2022-09-26T12:51:39.449Z,48.69
2022-09-26T12:54:10.939Z,49.72
2022-09-26T12:56:42.442Z,50.22
2022-09-26T12:59:14.319Z,52.28
2022-09-26T13:01:48.755Z,52.08
2022-09-26T13:04:20.873Z,53.44
2022-09-26T13:07:17.158Z,52.97
2022-09-26T13:09:47.326Z,53.58
2022-09-26T13:12:18.871Z,53.14
2022-09-26T13:14:50.881Z,53.06
2022-09-26T13:17:22.392Z,54.20
2022-09-26T13:19:54.283Z,55.34
2022-09-26T13:22:31.297Z,55.12
2022-09-26T13:25:02.819Z,54.93
2022-09-26T13:27:36.181Z,54.94
2022-09-26T13:30:08.275Z,54.93
2022-09-26T13:32:40.470Z,54.77
2022-09-26T13:35:12.425Z,55.04
2022-09-26T13:37:43.951Z,53.90
2022-09-26T13:40:16.485Z,53.12
2022-09-26T13:42:47.981Z,52.49
2022-09-26T13:45:19.505Z,50.51
2022-09-26T13:47:51.009Z,50.33
2022-09-26T13:50:25.680Z,50.80
2022-09-26T13:52:57.166Z,52.05
2022-09-26T13:55:29.965Z,51.66
2022-09-26T13:58:06.912Z,51.74
2022-09-26T14:00:41.547Z,52.66
2022-09-26T14:03:13.641Z,52.24
2022-09-26T14:05:46.346Z,52.51
2022-09-26T14:08:36.484Z,52.18
2022-09-26T14:11:08.466Z,51.34
2022-09-26T14:13:39.970Z,51.87
2022-09-26T14:16:13.296Z,52.27
2022-09-26T14:18:44.877Z,52.75
2022-09-26T14:21:16.354Z,52.22
2022-09-26T14:23:49.028Z,53.32
2022-09-26T14:26:21.144Z,53.13
2022-09-26T14:28:52.885Z,52.98
2022-09-26T14:31:24.657Z,52.71
2022-09-26T14:33:59.521Z,52.46
2022-09-26T14:36:31.146Z,53.49
2022-09-26T14:39:02.953Z,53.35
2022-09-26T14:41:35.684Z,53.79
2022-09-26T14:44:07.614Z,53.90
2022-09-26T14:46:39.205Z,54.26
2022-09-26T14:49:11.794Z,54.23
2022-09-26T14:51:43.291Z,53.94
2022-09-26T14:54:14.903Z,54.07
2022-09-26T14:56:46.514Z,53.95
2022-09-26T14:59:18.053Z,54.13
2022-09-26T15:01:49.578Z,55.07
2022-09-26T15:04:21.432Z,54.09
2022-09-26T15:06:52.928Z,54.23
2022-09-26T15:09:24.777Z,53.72
2022-09-26T15:11:56.274Z,54.25
2022-09-26T15:14:28.150Z,54.03
2022-09-26T15:16:59.645Z,54.03
2022-09-26T15:19:32.977Z,54.53
2022-09-26T15:22:04.470Z,54.82
2022-09-26T15:24:37.164Z,55.46
2022-09-26T15:27:08.733Z,56.03
2022-09-26T15:29:40.499Z,56.28
2022-09-26T15:32:12.054Z,56.40
2022-09-26T15:34:43.978Z,56.98
2022-09-26T15:37:15.530Z,56.90
2022-09-26T15:39:47.351Z,56.57
2022-09-26T15:42:37.817Z,56.57
2022-09-26T15:45:09.612Z,56.96
2022-09-26T15:47:41.157Z,57.38
2022-09-26T15:50:12.984Z,57.77
2022-09-26T15:52:44.507Z,58.21
2022-09-26T15:55:16.586Z,57.83
2022-09-26T15:57:48.063Z,58.79
2022-09-26T16:00:19.991Z,58.58
2022-09-26T16:02:51.504Z,58.94
2022-09-26T16:05:23.332Z,59.32
2022-09-26T16:07:58.211Z,60.03
2022-09-26T16:10:30.122Z,60.72
2022-09-26T16:13:01.588Z,60.94
2022-09-26T16:15:33.412Z,61.74
2022-09-26T16:18:04.982Z,62.21
2022-09-26T16:20:36.781Z,61.86
2022-09-26T16:23:08.554Z,63.11
2022-09-26T16:25:40.039Z,63.07
2022-09-26T16:28:12.076Z,63.23
2022-09-26T16:30:43.622Z,63.86
2022-09-26T16:33:15.543Z,64.92
2022-09-26T16:35:47.240Z,64.92
2022-09-26T16:38:19.104Z,65.91
2022-09-26T16:40:50.677Z,66.31
2022-09-26T16:43:24.383Z,67.06
2022-09-26T16:45:56.323Z,67.43
2022-09-26T16:48:28.161Z,67.34
2022-09-26T16:50:59.644Z,68.21
2022-09-26T16:53:31.428Z,67.63
2022-09-26T16:56:03.163Z,68.31
2022-09-26T16:58:35.113Z,68.94
2022-09-26T17:01:25.232Z,69.67
2022-09-26T17:03:57.767Z,69.43
2022-09-26T17:06:30.330Z,70.10
2022-09-26T17:09:05.101Z,69.83
2022-09-26T17:11:37.132Z,70.63
2022-09-26T17:14:09.185Z,70.87
2022-09-26T17:16:40.788Z,70.41
2022-09-26T17:19:12.560Z,70.51
2022-09-26T17:21:45.242Z,70.96
2022-09-26T17:24:17.119Z,70.68
2022-09-26T17:26:48.687Z,70.46
2022-09-26T17:29:20.717Z,70.97
2022-09-26T17:31:52.203Z,71.14
2022-09-26T17:34:23.975Z,71.55
2022-09-26T17:36:55.661Z,71.20
2022-09-26T17:39:27.657Z,71.26
2022-09-26T17:41:59.293Z,70.95
2022-09-26T17:44:33.058Z,71.01
2022-09-26T17:47:05.201Z,71.21
2022-09-26T17:49:36.932Z,71.09
2022-09-26T17:52:08.396Z,71.63
2022-09-26T17:54:42.999Z,71.77
2022-09-26T17:57:14.946Z,71.19
2022-09-26T17:59:46.727Z,71.86
2022-09-26T18:02:18.360Z,71.53
2022-09-26T18:04:52.593Z,71.37
2022-09-26T18:07:24.322Z,71.30
2022-09-26T18:09:56.317Z,71.09
2022-09-26T18:12:27.842Z,71.00
2022-09-26T18:15:00.266Z,71.59
2022-09-26T18:17:42.496Z,71.25
2022-09-26T18:20:13.999Z,71.80
2022-09-26T18:22:45.826Z,71.51
2022-09-26T18:25:18.962Z,72.14
2022-09-26T18:27:53.620Z,71.76
2022-09-26T18:30:25.574Z,72.27
2022-09-26T18:32:57.383Z,72.39
2022-09-26T18:35:29.877Z,72.66
2022-09-26T18:38:01.775Z,73.15
2022-09-26T18:40:33.363Z,72.77
2022-09-26T18:43:05.005Z,73.34
2022-09-26T18:45:36.608Z,73.93
2022-09-26T18:48:08.615Z,74.13
2022-09-26T18:50:40.143Z,74.78
2022-09-26T18:53:11.943Z,74.42
2022-09-26T18:56:02.482Z,74.38
2022-09-26T18:58:34.697Z,74.85
2022-09-26T19:01:06.978Z,74.39
2022-09-26T19:03:39.170Z,74.80
2022-09-26T19:06:11.758Z,74.58
2022-09-26T19:08:43.996Z,75.14
2022-09-26T19:11:15.519Z,75.06
2022-09-26T19:13:48.144Z,74.85
2022-09-26T19:16:19.821Z,74.98
2022-09-26T19:18:51.717Z,75.18
2022-09-26T19:21:23.272Z,75.22
2022-09-26T19:23:55.163Z,75.46
2022-09-26T19:26:26.658Z,75.24
2022-09-26T19:28:58.665Z,75.38
2022-09-26T19:31:30.253Z,75.60
2022-09-26T19:34:02.210Z,75.68
2022-09-26T19:36:33.699Z,75.75
2022-09-26T19:39:05.556Z,76.18
2022-09-26T19:41:37.047Z,76.01
2022-09-26T19:44:08.609Z,76.20
2022-09-26T19:46:40.189Z,75.94
2022-09-26T19:49:12.068Z,76.66
2022-09-26T19:51:43.643Z,76.47
2022-09-26T19:54:15.802Z,76.68
2022-09-26T19:56:47.580Z,76.71
2022-09-26T19:59:21.351Z,76.61
2022-09-26T20:01:56.200Z,77.14
2022-09-26T20:04:29.857Z,77.00
2022-09-26T20:07:01.467Z,77.11
2022-09-26T20:09:33.380Z,77.46
2022-09-26T20:12:04.897Z,77.47
2022-09-26T20:14:36.701Z,77.66
2022-09-26T20:17:08.410Z,78.17
2022-09-26T20:19:40.368Z,77.82
2022-09-26T20:22:11.850Z,78.54
2022-09-26T20:24:44.201Z,78.52
2022-09-26T20:27:15.724Z,78.30
2022-09-26T20:30:06.463Z,78.18
2022-09-26T20:32:37.945Z,78.49
2022-09-26T20:35:11.097Z,78.27
2022-09-26T20:37:42.625Z,78.90
2022-09-26T20:40:14.569Z,79.11
2022-09-26T20:42:46.106Z,78.93
2022-09-26T20:45:17.979Z,79.32
2022-09-26T20:47:49.499Z,79.11
2022-09-26T20:50:36.280Z,79.32
2022-09-26T20:53:11.379Z,79.63
2022-09-26T20:55:44.302Z,79.26
2022-09-26T20:58:16.345Z,79.31
2022-09-26T21:00:47.924Z,79.55
2022-09-26T21:03:22.152Z,79.88
2022-09-26T21:05:53.693Z,80.05
2022-09-26T21:08:25.685Z,79.76
2022-09-26T21:10:57.825Z,81.20
2022-09-26T21:13:29.755Z,82.26
2022-09-26T21:16:01.237Z,82.26
2022-09-26T21:18:33.126Z,83.44
2022-09-26T21:21:04.721Z,84.39
2022-09-26T21:23:36.509Z,85.89
2022-09-26T21:26:08.044Z,86.17
2022-09-26T21:28:39.950Z,85.77
2022-09-26T21:31:11.513Z,85.94
2022-09-26T21:33:43.425Z,88.28
2022-09-26T21:36:14.917Z,87.26
2022-09-26T21:38:46.712Z,87.64
2022-09-26T21:41:18.209Z,87.97
2022-09-26T21:43:50.048Z,87.67
2022-09-26T21:46:21.627Z,87.89
2022-09-26T21:48:53.587Z,87.69
2022-09-26T21:51:25.103Z,87.41
2022-09-26T21:53:56.957Z,87.34
2022-09-26T21:56:28.848Z,87.51
2022-09-26T21:59:00.849Z,87.44
2022-09-26T22:01:32.372Z,87.29
2022-09-26T22:04:04.292Z,87.08
2022-09-26T22:06:35.818Z,86.80
2022-09-26T22:09:07.640Z,87.52
2022-09-26T22:11:39.308Z,86.82
2022-09-26T22:14:11.089Z,87.36
2022-09-26T22:16:42.880Z,87.37
2022-09-26T22:19:15.155Z,87.07
2022-09-26T22:21:46.735Z,87.35
2022-09-26T22:24:18.719Z,87.21
2022-09-26T22:26:50.688Z,87.28
2022-09-26T22:29:22.582Z,87.41
2022-09-26T22:31:54.082Z,87.52
2022-09-26T22:34:28.929Z,87.15
2022-09-26T22:37:00.470Z,87.33
2022-09-26T22:39:32.895Z,87.65
2022-09-26T22:42:04.720Z,87.80
2022-09-26T22:44:36.203Z,88.38
2022-09-26T22:47:07.772Z,87.87
2022-09-26T22:49:39.259Z,88.42
2022-09-26T22:52:11.127Z,88.34
2022-09-26T22:54:42.629Z,88.58
2022-09-26T22:57:14.474Z,88.35
2022-09-26T22:59:45.994Z,88.05
2022-09-26T23:02:17.878Z,88.04
2022-09-26T23:04:49.528Z,87.90
2022-09-26T23:07:21.640Z,88.16
2022-09-26T23:09:53.146Z,87.86
2022-09-26T23:12:24.664Z,87.93
2022-09-26T23:14:56.168Z,87.94
2022-09-26T23:17:28.002Z,88.17
2022-09-26T23:19:59.497Z,87.89
2022-09-26T23:22:31.444Z,88.33
2022-09-26T23:25:03.004Z,88.05
2022-09-26T23:27:34.817Z,87.97
2022-09-26T23:30:06.381Z,88.26
2022-09-26T23:32:38.218Z,88.01
2022-09-26T23:35:09.720Z,88.26
2022-09-26T23:37:41.520Z,88.46
2022-09-26T23:40:13.080Z,88.45
2022-09-26T23:42:45.093Z,88.42
2022-09-26T23:45:16.625Z,88.50
2022-09-26T23:47:49.150Z,88.58
2022-09-26T23:50:20.704Z,88.43
2022-09-26T23:52:52.561Z,88.41
2022-09-26T23:55:24.036Z,88.73
2022-09-26T23:57:55.946Z,88.66
